createdAt,value
2022-12-28T00:00:56.948Z,101560.88
2022-12-28T00:02:58.549Z,101557.63
2022-12-28T00:04:59.944Z,101554.44
2022-12-28T00:07:01.567Z,101556.75
2022-12-28T00:09:03.010Z,101549.34
2022-12-28T00:11:13.311Z,101548.50
2022-12-28T00:13:22.232Z,101546.44
2022-12-28T00:15:25.284Z,101546.44
2022-12-28T00:17:26.692Z,101546.16
2022-12-28T00:19:28.425Z,101537.47
2022-12-28T00:21:31.135Z,101538.09
2022-12-28T00:23:33.088Z,101534.81
2022-12-28T00:25:34.979Z,101522.97
2022-12-28T00:27:38.048Z,101524.25
2022-12-28T00:29:40.193Z,101523.41
2022-12-28T00:31:42.386Z,101522.25
2022-12-28T00:33:44.458Z,101516.59
2022-12-28T00:35:53.026Z,101515.63
2022-12-28T00:37:54.577Z,101517.66
2022-12-28T00:39:56.203Z,101506.16
2022-12-28T00:41:57.926Z,101539.91
2022-12-28T00:44:01.033Z,101527.97
2022-12-28T00:46:03.177Z,101530.31
2022-12-28T00:48:05.530Z,101508.03
2022-12-28T00:50:08.066Z,101511.56
2022-12-28T00:52:09.738Z,101518.59
2022-12-28T00:54:11.151Z,101511.34
2022-12-28T00:56:14.905Z,101514.72
2022-12-28T00:58:16.787Z,101507.63
2022-12-28T01:00:20.029Z,101500.66
2022-12-28T01:02:21.736Z,101504.88
2022-12-28T01:04:23.368Z,101502.34
2022-12-28T01:06:25.567Z,101497.94
2022-12-28T01:08:27.143Z,101496.06
2022-12-28T01:10:28.865Z,101499.72
2022-12-28T01:12:34.683Z,101491.63
2022-12-28T01:14:39.813Z,101497.69
2022-12-28T01:16:43.007Z,101504.72
2022-12-28T01:18:46.287Z,101486.41
2022-12-28T01:20:48.016Z,101491.69
2022-12-28T01:22:49.700Z,101495.94
2022-12-28T01:24:51.062Z,101490.88
2022-12-28T01:26:52.643Z,101492.59
2022-12-28T01:28:54.148Z,101489.81
2022-12-28T01:30:55.909Z,101481.19
2022-12-28T01:33:00.242Z,101486.41
2022-12-28T01:35:01.898Z,101477.50
2022-12-28T01:37:03.462Z,101468.94
2022-12-28T01:39:06.127Z,101474.16
2022-12-28T01:41:09.171Z,101465.41
2022-12-28T01:43:13.899Z,101457.44
2022-12-28T01:45:31.302Z,101461.78
2022-12-28T01:47:35.706Z,101460.06
2022-12-28T01:49:44.458Z,101447.94
2022-12-28T01:51:52.357Z,101449.91
2022-12-28T01:53:55.861Z,101443.06
2022-12-28T01:55:57.651Z,101436.72
2022-12-28T01:58:03.281Z,101431.78
2022-12-28T02:00:09.451Z,101434.94
2022-12-28T02:02:13.561Z,101428.38
2022-12-28T02:04:15.348Z,101420.03
2022-12-28T02:06:18.448Z,101421.03
2022-12-28T02:08:26.416Z,101415.47
2022-12-28T02:10:43.777Z,101419.59
2022-12-28T02:12:47.441Z,101407.75
2022-12-28T02:14:49.200Z,101398.66
2022-12-28T02:16:51.266Z,101398.25
2022-12-28T02:18:53.119Z,101388.16
2022-12-28T02:21:17.549Z,101388.84
2022-12-28T02:23:35.427Z,101382.91
2022-12-28T02:26:03.048Z,101376.78
2022-12-28T02:28:19.653Z,101372.16
2022-12-28T02:30:22.978Z,101372.09
2022-12-28T02:32:45.376Z,101368.88
2022-12-28T02:34:53.094Z,101363.03
2022-12-28T02:37:00.663Z,101357.06
2022-12-28T02:39:06.885Z,101357.88
2022-12-28T02:41:12.617Z,101350.75
2022-12-28T02:43:14.943Z,101344.16
2022-12-28T02:45:36.209Z,101325.03
2022-12-28T02:47:40.622Z,101337.25
2022-12-28T02:49:42.367Z,101335.59
2022-12-28T02:51:57.590Z,101330.44
2022-12-28T02:54:19.703Z,101326.03
2022-12-28T02:56:31.998Z,101321.38
2022-12-28T02:59:10.373Z,101318.84
2022-12-28T03:01:26.821Z,101317.03
2022-12-28T03:03:36.794Z,101297.50
2022-12-28T03:05:53.817Z,101297.50
2022-12-28T03:08:02.418Z,101292.34
2022-12-28T03:10:12.814Z,101289.13
2022-12-28T03:12:18.167Z,101279.94
2022-12-28T03:14:26.338Z,101276.72
2022-12-28T03:16:33.722Z,101273.69
2022-12-28T03:18:37.744Z,101267.13
2022-12-28T03:20:39.454Z,101257.53
2022-12-28T03:22:43.901Z,101260.66
2022-12-28T03:24:45.781Z,101260.72
2022-12-28T03:26:50.959Z,101261.44
2022-12-28T03:28:54.922Z,101250.84
2022-12-28T03:31:00.685Z,101245.88
2022-12-28T03:33:05.574Z,101255.63
2022-12-28T03:35:07.809Z,101254.31
2022-12-28T03:37:17.656Z,101252.00
2022-12-28T03:39:30.637Z,101245.91
2022-12-28T03:41:37.535Z,101236.44
2022-12-28T03:43:45.136Z,101229.38
2022-12-28T03:45:51.827Z,101229.13
2022-12-28T03:47:55.515Z,101215.84
2022-12-28T03:49:59.504Z,101211.84
2022-12-28T03:52:06.208Z,101203.72
2022-12-28T03:54:07.961Z,101201.34
2022-12-28T03:56:11.103Z,101200.63
2022-12-28T03:58:12.904Z,101189.56
2022-12-28T04:00:15.464Z,101198.88
2022-12-28T04:02:17.841Z,101193.41
2022-12-28T04:04:19.694Z,101196.66
2022-12-28T04:06:22.883Z,101191.81
2022-12-28T04:08:25.369Z,101187.16
2022-12-28T04:10:27.240Z,101188.34
2022-12-28T04:12:29.039Z,101176.53
2022-12-28T04:14:31.018Z,101138.47
2022-12-28T04:16:32.719Z,101148.94
2022-12-28T04:18:34.275Z,101169.53
2022-12-28T04:20:35.954Z,101119.81
2022-12-28T04:22:38.809Z,101156.91
2022-12-28T04:24:43.840Z,101156.69
2022-12-28T04:26:48.691Z,101140.09
2022-12-28T04:28:50.413Z,101143.09
2022-12-28T04:30:51.879Z,101144.44
2022-12-28T04:32:55.670Z,101147.97
2022-12-28T04:34:57.581Z,101129.47
2022-12-28T04:36:59.494Z,101138.06
2022-12-28T04:39:02.637Z,101080.88
2022-12-28T04:41:06.140Z,101123.22
2022-12-28T04:43:07.671Z,101085.44
2022-12-28T04:45:10.036Z,101113.34
2022-12-28T04:47:11.739Z,101112.13
2022-12-28T04:49:13.100Z,101122.69
2022-12-28T04:51:17.819Z,101076.63
2022-12-28T04:53:19.453Z,101114.38
2022-12-28T04:55:32.053Z,101085.63
2022-12-28T04:57:35.171Z,101079.66
2022-12-28T04:59:37.063Z,101071.66
2022-12-28T05:01:38.846Z,101070.59
2022-12-28T05:03:42.601Z,101079.97
2022-12-28T05:05:44.379Z,101079.63
2022-12-28T05:07:46.124Z,101089.78
2022-12-28T05:09:47.983Z,101062.16
2022-12-28T05:11:51.018Z,101093.19
2022-12-28T05:13:52.907Z,101099.97
2022-12-28T05:15:54.753Z,101100.75
2022-12-28T05:17:56.415Z,101008.03
2022-12-28T05:19:57.785Z,101106.91
2022-12-28T05:21:59.440Z,101035.63
2022-12-28T05:24:00.926Z,101102.41
2022-12-28T05:26:02.954Z,101070.34
2022-12-28T05:28:06.632Z,101091.16
2022-12-28T05:30:09.335Z,101085.75
2022-12-28T05:32:11.054Z,101095.16
2022-12-28T05:34:15.028Z,101092.88
2022-12-28T05:36:20.862Z,101093.69
2022-12-28T05:38:22.547Z,101082.09
2022-12-28T05:40:23.974Z,101086.03
2022-12-28T05:42:25.539Z,101091.06
2022-12-28T05:44:29.313Z,101084.69
2022-12-28T05:46:34.200Z,101072.25
2022-12-28T05:48:37.918Z,101080.06
2022-12-28T05:50:39.561Z,101061.22
2022-12-28T05:52:41.043Z,101066.34
2022-12-28T05:54:42.594Z,101054.81
2022-12-28T05:56:44.380Z,101054.69
2022-12-28T05:58:47.864Z,101059.69
2022-12-28T06:00:50.841Z,101054.53
2022-12-28T06:02:52.529Z,101038.78
2022-12-28T06:04:54.611Z,101045.69
2022-12-28T06:06:56.158Z,101037.69
2022-12-28T06:08:58.126Z,101039.34
2022-12-28T06:11:01.462Z,101039.34
2022-12-28T06:13:05.348Z,101039.56
2022-12-28T06:15:08.025Z,101037.34
2022-12-28T06:17:10.945Z,101032.13
2022-12-28T06:19:12.909Z,101021.56
2022-12-28T06:21:16.830Z,101018.59
2022-12-28T06:23:18.508Z,101014.38
2022-12-28T06:25:20.071Z,101006.00
2022-12-28T06:27:21.654Z,101009.38
2022-12-28T06:29:23.014Z,101007.78
2022-12-28T06:31:27.044Z,100997.34
2022-12-28T06:33:30.307Z,101002.34
2022-12-28T06:35:31.881Z,101003.75
2022-12-28T06:37:33.353Z,101005.78
2022-12-28T06:39:35.479Z,100987.63
2022-12-28T06:41:38.341Z,100990.00
2022-12-28T06:43:41.780Z,100995.06
2022-12-28T06:45:43.376Z,101006.38
2022-12-28T06:47:45.048Z,100994.75
2022-12-28T06:49:48.063Z,100993.81
2022-12-28T06:51:49.623Z,100985.47
2022-12-28T06:53:53.044Z,100988.38
2022-12-28T06:55:55.353Z,100979.09
2022-12-28T06:57:56.953Z,100982.69
2022-12-28T06:59:58.428Z,100972.91
2022-12-28T07:02:00.344Z,100962.50
2022-12-28T07:04:05.202Z,100967.41
2022-12-28T07:06:08.909Z,100975.34
2022-12-28T07:08:12.754Z,100961.13
2022-12-28T07:10:15.003Z,100965.09
2022-12-28T07:12:16.786Z,100962.31
2022-12-28T07:14:18.446Z,100957.53
2022-12-28T07:16:20.972Z,100951.56
2022-12-28T07:18:22.747Z,100952.44
2022-12-28T07:20:24.442Z,100950.75
2022-12-28T07:22:27.406Z,100929.94
2022-12-28T07:24:29.257Z,100948.78
2022-12-28T07:26:33.290Z,100948.53
2022-12-28T07:28:36.721Z,100937.66
2022-12-28T07:30:38.291Z,100942.25
2022-12-28T07:32:40.208Z,100941.63
2022-12-28T07:34:41.780Z,100931.69
2022-12-28T07:36:43.491Z,100935.31
2022-12-28T07:38:47.087Z,100908.06
2022-12-28T07:40:48.690Z,100913.06
2022-12-28T07:42:50.300Z,100921.91
2022-12-28T07:44:51.945Z,100915.16
2022-12-28T07:46:54.916Z,100903.72
2022-12-28T07:48:57.294Z,100907.03
2022-12-28T07:51:05.051Z,100904.06
2022-12-28T07:53:06.641Z,100902.09
2022-12-28T07:55:09.812Z,100904.59
2022-12-28T07:57:11.689Z,100900.59
2022-12-28T07:59:13.279Z,100903.06
2022-12-28T08:01:17.339Z,100903.47
2022-12-28T08:03:19.795Z,100898.50
2022-12-28T08:05:21.484Z,100906.63
2022-12-28T08:07:23.180Z,100904.22
2022-12-28T08:09:24.750Z,100896.13
2022-12-28T08:11:29.888Z,100900.59
2022-12-28T08:13:32.758Z,100897.41
2022-12-28T08:15:34.388Z,100903.47
2022-12-28T08:17:35.847Z,100896.34
2022-12-28T08:19:37.708Z,100892.09
2022-12-28T08:21:41.693Z,100887.31
2022-12-28T08:23:43.591Z,100880.59
2022-12-28T08:25:45.538Z,100882.09
2022-12-28T08:27:48.490Z,100883.16
2022-12-28T08:29:50.161Z,100876.56
2022-12-28T08:31:51.801Z,100876.56
2022-12-28T08:33:53.561Z,100874.00
2022-12-28T08:35:56.956Z,100865.00
2022-12-28T08:37:58.734Z,100864.00
2022-12-28T08:40:00.400Z,100862.75
2022-12-28T08:42:02.247Z,100852.66
2022-12-28T08:44:06.244Z,100851.41
2022-12-28T08:46:11.726Z,100847.75
2022-12-28T08:48:13.665Z,100833.97
2022-12-28T08:50:19.819Z,100843.22
2022-12-28T08:52:21.789Z,100844.50
2022-12-28T08:54:23.188Z,100852.00
2022-12-28T08:56:26.579Z,100847.38
2022-12-28T08:58:28.143Z,100845.28
2022-12-28T09:00:30.908Z,100841.50
2022-12-28T09:02:32.693Z,100841.03
2022-12-28T09:04:34.470Z,100833.53
2022-12-28T09:06:38.328Z,100837.84
2022-12-28T09:08:42.581Z,100835.16
2022-12-28T09:10:44.540Z,100837.84
2022-12-28T09:12:46.052Z,100838.44
2022-12-28T09:14:47.700Z,100826.72
2022-12-28T09:16:50.545Z,100837.41
2022-12-28T09:18:53.897Z,100841.50
2022-12-28T09:20:56.154Z,100837.19
2022-12-28T09:22:57.792Z,100830.50
2022-12-28T09:24:59.230Z,100823.63
2022-12-28T09:27:01.170Z,100818.50
2022-12-28T09:29:06.078Z,100813.66
2022-12-28T09:31:08.875Z,100815.25
2022-12-28T09:33:11.907Z,100816.06
2022-12-28T09:35:13.690Z,100802.78
2022-12-28T09:37:15.402Z,100802.84
2022-12-28T09:39:18.466Z,100791.38
2022-12-28T09:41:26.215Z,100804.78
2022-12-28T09:43:28.236Z,100790.53
2022-12-28T09:45:31.513Z,100800.88
2022-12-28T09:47:38.599Z,100798.13
2022-12-28T09:49:47.641Z,100787.59
2022-12-28T09:51:54.911Z,100789.25
2022-12-28T09:53:57.182Z,100778.22
2022-12-28T09:56:02.752Z,100781.09
2022-12-28T09:58:12.211Z,100787.53
2022-12-28T10:00:19.897Z,100778.38
2022-12-28T10:02:27.474Z,100787.06
2022-12-28T10:04:29.929Z,100780.97
2022-12-28T10:06:34.058Z,100768.16
2022-12-28T10:08:41.000Z,100764.97
2022-12-28T10:10:48.457Z,100768.84
2022-12-28T10:12:51.903Z,100760.78
2022-12-28T10:14:53.934Z,100767.56
2022-12-28T10:16:56.386Z,100763.44
2022-12-28T10:18:58.846Z,100758.38
2022-12-28T10:21:00.779Z,100759.00
2022-12-28T10:23:05.134Z,100762.38
2022-12-28T10:25:14.186Z,100753.28
2022-12-28T10:27:22.309Z,100753.09
2022-12-28T10:29:25.497Z,100753.63
2022-12-28T10:31:35.118Z,100753.03
2022-12-28T10:33:39.592Z,100742.44
2022-12-28T10:35:42.917Z,100747.84
2022-12-28T10:37:44.685Z,100744.22
2022-12-28T10:39:53.923Z,100743.78
2022-12-28T10:41:58.143Z,100737.63
2022-12-28T10:44:37.512Z,100729.97
2022-12-28T10:46:23.484Z,100721.09
2022-12-28T10:48:28.389Z,100717.06
2022-12-28T10:50:50.873Z,100721.50
2022-12-28T10:52:58.708Z,100717.66
2022-12-28T10:55:08.295Z,100723.47
2022-12-28T10:57:17.109Z,100726.53
2022-12-28T10:59:20.589Z,100713.63
2022-12-28T11:01:28.074Z,100706.75
2022-12-28T11:03:32.236Z,100719.19
2022-12-28T11:05:34.166Z,100713.84
2022-12-28T11:07:37.437Z,100711.09
2022-12-28T11:09:39.531Z,100699.00
2022-12-28T11:11:43.567Z,100703.44
2022-12-28T11:13:48.198Z,100696.69
2022-12-28T11:15:50.011Z,100702.78
2022-12-28T11:17:56.816Z,100702.44
2022-12-28T11:20:06.857Z,100685.41
2022-12-28T11:22:10.181Z,100689.97
2022-12-28T11:24:14.040Z,100698.53
2022-12-28T11:26:15.830Z,100694.88
2022-12-28T11:28:22.470Z,100694.34
2022-12-28T11:30:24.628Z,100686.66
2022-12-28T11:32:31.484Z,100690.97
2022-12-28T11:34:33.682Z,100689.13
2022-12-28T11:36:40.119Z,100681.28
2022-12-28T11:38:44.128Z,100679.69
2022-12-28T11:40:49.985Z,100667.47
2022-12-28T11:42:54.220Z,100678.88
2022-12-28T11:44:57.456Z,100675.44
2022-12-28T11:47:02.702Z,100674.97
2022-12-28T11:49:05.808Z,100685.19
2022-12-28T11:51:16.145Z,100674.13
2022-12-28T11:53:42.710Z,100670.81
2022-12-28T11:56:03.174Z,100660.88
2022-12-28T11:58:53.508Z,100668.56
2022-12-28T12:00:57.429Z,100672.94
2022-12-28T12:03:00.918Z,100653.97
2022-12-28T12:05:48.089Z,100657.81
2022-12-28T12:07:49.926Z,100652.25
2022-12-28T12:10:33.326Z,100651.97
2022-12-28T12:12:46.491Z,100644.03
2022-12-28T12:14:51.811Z,100655.97
2022-12-28T12:17:00.501Z,100652.56
2022-12-28T12:19:04.635Z,100640.78
2022-12-28T12:21:15.097Z,100638.38
2022-12-28T12:23:28.739Z,100646.81
2022-12-28T12:25:37.388Z,100639.34
2022-12-28T12:27:42.961Z,100635.09
2022-12-28T12:29:49.175Z,100628.63
2022-12-28T12:32:01.007Z,100632.00
2022-12-28T12:34:06.973Z,100632.19
2022-12-28T12:36:29.878Z,100622.03
2022-12-28T12:38:49.534Z,100637.59
2022-12-28T12:41:09.122Z,100627.31
2022-12-28T12:43:41.328Z,100626.03
2022-12-28T12:45:53.840Z,100624.56
2022-12-28T12:48:16.924Z,100624.19
2022-12-28T12:50:46.354Z,100620.97
2022-12-28T12:52:55.121Z,100617.41
2022-12-28T12:55:13.215Z,100615.03
2022-12-28T12:57:21.007Z,100613.97
2022-12-28T12:59:36.471Z,100621.13
2022-12-28T13:01:46.697Z,100612.53
2022-12-28T13:03:50.658Z,100616.13
2022-12-28T13:05:54.317Z,100607.66
2022-12-28T13:07:56.916Z,100610.00
2022-12-28T13:10:02.347Z,100603.25
2022-12-28T13:12:14.097Z,100600.97
2022-12-28T13:14:18.763Z,100607.63
2022-12-28T13:16:23.523Z,100603.03
2022-12-28T13:20:56.261Z,100598.31
2022-12-28T13:22:58.065Z,100595.16
2022-12-28T13:25:00.379Z,100607.22
2022-12-28T13:27:03.285Z,100598.03
2022-12-28T13:29:09.689Z,100603.59
2022-12-28T13:31:17.883Z,100598.91
2022-12-28T13:33:21.540Z,100590.53
2022-12-28T13:35:26.148Z,100597.00
2022-12-28T13:37:29.785Z,100591.84
2022-12-28T13:39:39.912Z,100587.88
2022-12-28T13:41:50.753Z,100594.06
2022-12-28T13:44:18.785Z,100593.41
2022-12-28T13:46:21.405Z,100598.56
2022-12-28T13:48:24.627Z,100595.78
2022-12-28T13:50:29.921Z,100600.06
2022-12-28T13:52:37.277Z,100607.09
2022-12-28T13:54:40.470Z,100606.38
2022-12-28T13:56:44.608Z,100597.06
2022-12-28T13:58:52.336Z,100599.94
2022-12-28T14:00:56.990Z,100605.94
2022-12-28T14:02:59.622Z,100598.91
2022-12-28T14:05:04.382Z,100598.44
2022-12-28T14:07:12.631Z,100594.34
2022-12-28T14:09:16.563Z,100602.94
2022-12-28T14:11:18.849Z,100596.06
2022-12-28T14:13:21.637Z,100593.75
2022-12-28T14:15:23.866Z,100604.53
2022-12-28T14:17:26.297Z,100600.06
2022-12-28T14:19:28.417Z,100599.00
2022-12-28T14:21:35.508Z,100583.56
2022-12-28T14:23:41.928Z,100596.91
2022-12-28T14:25:45.194Z,100599.06
2022-12-28T14:27:57.447Z,100599.31
2022-12-28T14:30:00.211Z,100608.00
2022-12-28T14:32:05.447Z,100609.81
2022-12-28T14:34:22.159Z,100605.16
2022-12-28T14:36:29.103Z,100611.47
2022-12-28T14:38:34.110Z,100601.72
2022-12-28T14:40:38.687Z,100601.59
2022-12-28T14:42:41.843Z,100597.88
2022-12-28T14:44:43.701Z,100598.00
2022-12-28T14:46:45.463Z,100582.66
2022-12-28T14:48:47.684Z,100599.50
2022-12-28T14:50:57.506Z,100592.06
2022-12-28T14:53:08.403Z,100602.00
2022-12-28T14:55:23.252Z,100604.00
2022-12-28T14:57:34.119Z,100599.72
2022-12-28T14:59:40.344Z,100606.34
2022-12-28T15:01:44.481Z,100600.78
2022-12-28T15:03:51.623Z,100604.06
2022-12-28T15:05:53.762Z,100601.50
2022-12-28T15:07:55.773Z,100606.06
2022-12-28T15:09:57.440Z,100609.53
2022-12-28T15:12:10.697Z,100602.03
2022-12-28T15:14:12.835Z,100600.63
2022-12-28T15:16:17.715Z,100603.06
2022-12-28T15:18:19.939Z,100598.63
2022-12-28T15:20:21.913Z,100588.00
2022-12-28T15:22:23.769Z,100588.00
2022-12-28T15:24:31.881Z,100595.19
2022-12-28T15:26:35.590Z,100588.16
2022-12-28T15:28:38.500Z,100583.00
2022-12-28T15:30:41.324Z,100587.13
2022-12-28T15:32:45.035Z,100588.69
2022-12-28T15:34:46.568Z,100590.41
2022-12-28T15:36:48.072Z,100597.34
2022-12-28T15:38:49.801Z,100593.75
2022-12-28T15:40:55.551Z,100592.66
2022-12-28T15:42:57.498Z,100597.44
2022-12-28T15:44:59.356Z,100587.16
2022-12-28T15:47:01.290Z,100592.28
2022-12-28T15:49:05.639Z,100592.06
2022-12-28T15:51:07.164Z,100601.81
2022-12-28T15:53:08.577Z,100599.78
2022-12-28T15:55:10.284Z,100593.25
2022-12-28T15:57:12.063Z,100596.34
2022-12-28T15:59:14.619Z,100589.69
2022-12-28T16:01:16.476Z,100596.72
2022-12-28T16:03:18.542Z,100586.72
2022-12-28T16:05:22.169Z,100585.00
2022-12-28T16:07:23.976Z,100577.97
2022-12-28T16:09:25.749Z,100585.00
2022-12-28T16:11:29.056Z,100575.25
2022-12-28T16:13:32.685Z,100582.34
2022-12-28T16:15:34.255Z,100588.16
2022-12-28T16:17:41.747Z,100588.94
2022-12-28T16:19:49.838Z,100584.41
2022-12-28T16:21:52.884Z,100580.34
2022-12-28T16:23:54.967Z,100584.63
2022-12-28T16:25:56.997Z,100583.38
2022-12-28T16:27:58.988Z,100586.59
2022-12-28T16:30:00.946Z,100583.56
2022-12-28T16:32:03.123Z,100579.88
2022-12-28T16:34:06.361Z,100577.09
2022-12-28T16:36:12.331Z,100578.81
2022-12-28T16:38:16.713Z,100584.75
2022-12-28T16:40:18.322Z,100577.50
2022-12-28T16:42:22.290Z,100569.03
2022-12-28T16:44:25.513Z,100574.06
2022-12-28T16:46:27.274Z,100579.13
2022-12-28T16:48:28.904Z,100578.50
2022-12-28T16:50:30.475Z,100578.34
2022-12-28T16:52:32.170Z,100581.63
2022-12-28T16:54:35.374Z,100577.25
2022-12-28T16:56:37.172Z,100581.78
2022-12-28T16:58:38.957Z,100578.19
2022-12-28T17:00:40.822Z,100569.75
2022-12-28T17:02:42.893Z,100574.84
2022-12-28T17:04:44.614Z,100581.78
2022-12-28T17:06:46.424Z,100575.53
2022-12-28T17:08:48.007Z,100581.31
2022-12-28T17:10:50.861Z,100575.66
2022-12-28T17:12:52.516Z,100588.38
2022-12-28T17:14:54.091Z,100583.22
2022-12-28T17:16:55.438Z,100579.00
2022-12-28T17:18:57.403Z,100567.50
2022-12-28T17:21:03.337Z,100577.97
2022-12-28T17:23:08.571Z,100576.41
2022-12-28T17:25:10.721Z,100570.03
2022-12-28T17:27:18.845Z,100567.50
2022-12-28T17:29:21.197Z,100571.81
2022-12-28T17:31:23.979Z,100564.72
2022-12-28T17:33:25.747Z,100563.56
2022-12-28T17:35:27.353Z,100562.75
2022-12-28T17:37:28.690Z,100573.38
2022-12-28T17:39:36.008Z,100567.66
2022-12-28T17:41:41.175Z,100562.66
2022-12-28T17:43:47.749Z,100550.72
2022-12-28T17:45:49.670Z,100551.84
2022-12-28T17:47:51.726Z,100549.81
2022-12-28T17:49:53.616Z,100544.13
2022-12-28T17:51:55.585Z,100533.16
2022-12-28T17:53:57.644Z,100539.09
2022-12-28T17:56:00.940Z,100534.34
2022-12-28T17:58:02.670Z,100528.03
2022-12-28T18:00:07.098Z,100533.03
2022-12-28T18:02:10.487Z,100537.63
2022-12-28T18:04:12.498Z,100533.03
2022-12-28T18:06:14.384Z,100531.16
2022-12-28T18:08:16.370Z,100529.94
2022-12-28T18:10:18.424Z,100522.72
2022-12-28T18:12:22.693Z,100525.72
2022-12-28T18:14:27.425Z,100519.31
2022-12-28T18:16:30.457Z,100518.97
2022-12-28T18:18:32.688Z,100525.56
2022-12-28T18:20:34.350Z,100516.81
2022-12-28T18:22:35.970Z,100512.59
2022-12-28T18:24:37.598Z,100517.63
2022-12-28T18:26:39.280Z,100510.72
2022-12-28T18:28:40.954Z,100497.59
2022-12-28T18:30:42.637Z,100506.16
2022-12-28T18:32:46.122Z,100515.91
2022-12-28T18:34:48.042Z,100501.97
2022-12-28T18:36:49.945Z,100506.22
2022-12-28T18:38:51.558Z,100508.56
2022-12-28T18:40:55.423Z,100506.84
2022-12-28T18:42:57.089Z,100501.22
2022-12-28T18:44:58.744Z,100504.03
2022-12-28T18:47:00.546Z,100499.66
2022-12-28T18:49:03.735Z,100503.97
2022-12-28T18:51:08.424Z,100496.22
2022-12-28T18:53:10.093Z,100501.84
2022-12-28T18:55:11.823Z,100492.94
2022-12-28T18:57:13.561Z,100499.81
2022-12-28T18:59:15.329Z,100496.81
2022-12-28T19:02:04.007Z,100496.97
2022-12-28T19:03:40.076Z,100493.06
2022-12-28T19:05:43.535Z,100500.25
2022-12-28T19:07:49.311Z,100501.34
2022-12-28T19:09:51.642Z,100488.78
2022-12-28T19:11:53.435Z,100492.91
2022-12-28T19:13:55.220Z,100471.16
2022-12-28T19:15:56.895Z,100496.34
2022-12-28T19:17:58.642Z,100496.94
2022-12-28T19:20:00.409Z,100500.97
2022-12-28T19:22:03.383Z,100497.53
2022-12-28T19:24:06.773Z,100492.38
2022-12-28T19:26:08.351Z,100493.03
2022-12-28T19:28:09.750Z,100500.03
2022-12-28T19:30:12.901Z,100493.34
2022-12-28T19:32:14.769Z,100495.38
2022-12-28T19:34:16.967Z,100493.81
2022-12-28T19:36:18.834Z,100494.50
2022-12-28T19:38:22.213Z,100490.78
2022-12-28T19:40:24.149Z,100492.56
2022-12-28T19:42:25.911Z,100497.53
2022-12-28T19:44:27.608Z,100467.75
2022-12-28T19:46:29.341Z,100466.72
2022-12-28T19:48:31.052Z,100442.53
2022-12-28T19:50:32.807Z,100446.91
2022-12-28T19:52:35.311Z,100445.91
2022-12-28T19:54:38.783Z,100443.09
2022-12-28T19:56:40.431Z,100432.63
2022-12-28T19:58:43.114Z,100430.59
2022-12-28T20:00:45.203Z,100409.22
2022-12-28T20:02:46.874Z,100418.22
2022-12-28T20:04:48.478Z,100418.03
2022-12-28T20:06:49.965Z,100417.94
2022-12-28T20:08:53.537Z,100417.94
2022-12-28T20:10:56.654Z,100423.81
2022-12-28T20:12:58.275Z,100425.69
2022-12-28T20:14:59.969Z,100429.56
2022-12-28T20:17:01.857Z,100436.47
2022-12-28T20:19:03.921Z,100441.16
2022-12-28T20:21:22.671Z,100436.28
2022-12-28T20:23:24.591Z,100444.50
2022-12-28T20:25:26.661Z,100442.00
2022-12-28T20:27:29.738Z,100440.81
2022-12-28T20:29:31.574Z,100434.03
2022-12-28T20:31:33.294Z,100437.63
2022-12-28T20:33:36.349Z,100438.50
2022-12-28T20:35:37.898Z,100431.69
2022-12-28T20:37:39.445Z,100429.66
2022-12-28T20:39:41.043Z,100415.22
2022-12-28T20:41:42.728Z,100410.91
2022-12-28T20:43:48.454Z,100407.13
2022-12-28T20:45:54.176Z,100408.72
2022-12-28T20:47:56.301Z,100398.78
2022-12-28T20:49:58.311Z,100410.03
2022-12-28T20:52:00.251Z,100398.31
2022-12-28T20:54:02.469Z,100393.25
2022-12-28T20:56:08.286Z,100390.03
2022-12-28T20:58:09.993Z,100396.91
2022-12-28T21:00:14.043Z,100394.59
2022-12-28T21:02:15.791Z,100396.47
2022-12-28T21:04:17.490Z,100381.72
2022-12-28T21:06:19.079Z,100376.66
2022-12-28T21:08:22.880Z,100366.19
2022-12-28T21:10:28.061Z,100365.03
2022-12-28T21:12:30.026Z,100357.88
2022-12-28T21:14:32.027Z,100350.84
2022-12-28T21:16:35.514Z,100341.41
2022-12-28T21:18:37.297Z,100334.22
2022-12-28T21:20:47.526Z,100331.44
2022-12-28T21:22:50.619Z,100331.41
2022-12-28T21:24:52.216Z,100328.97
2022-12-28T21:26:53.611Z,100318.53
2022-12-28T21:28:55.179Z,100320.25
2022-12-28T21:30:57.238Z,100316.50
2022-12-28T21:33:00.379Z,100313.16
2022-12-28T21:35:02.326Z,100313.00
2022-12-28T21:37:04.102Z,100308.94
2022-12-28T21:39:06.407Z,100303.19
2022-12-28T21:41:09.941Z,100294.44
2022-12-28T21:43:11.771Z,100306.13
2022-12-28T21:45:13.767Z,100295.28
2022-12-28T21:47:15.406Z,100299.19
2022-12-28T21:49:18.725Z,100289.69
2022-12-28T21:51:20.335Z,100295.78
2022-12-28T21:53:21.730Z,100283.22
2022-12-28T21:55:23.444Z,100282.50
2022-12-28T21:57:25.402Z,100274.00
2022-12-28T21:59:27.324Z,100273.84
2022-12-28T22:01:29.243Z,100261.44
2022-12-28T22:03:31.090Z,100251.38
2022-12-28T22:05:34.360Z,100251.00
2022-12-28T22:07:36.080Z,100245.53
2022-12-28T22:09:38.365Z,100242.34
2022-12-28T22:11:42.679Z,100240.16
2022-12-28T22:13:44.309Z,100240.31
2022-12-28T22:15:45.739Z,100234.03
2022-12-28T22:17:47.391Z,100233.78
2022-12-28T22:19:49.090Z,100236.09
2022-12-28T22:21:52.137Z,100225.03
2022-12-28T22:23:53.751Z,100227.38
2022-12-28T22:25:55.295Z,100227.13
2022-12-28T22:27:57.052Z,100232.97
2022-12-28T22:29:58.939Z,100227.94
2022-12-28T22:32:00.553Z,100225.22
2022-12-28T22:34:07.135Z,100221.91
2022-12-28T22:36:09.719Z,100220.97
2022-12-28T22:38:12.715Z,100215.06
2022-12-28T22:40:14.947Z,100204.88
2022-12-28T22:42:16.796Z,100208.63
2022-12-28T22:44:18.543Z,100201.47
2022-12-28T22:46:21.482Z,100209.41
2022-12-28T22:48:23.173Z,100207.59
2022-12-28T22:50:25.945Z,100200.34
2022-12-28T22:52:27.517Z,100197.53
2022-12-28T22:54:32.689Z,100207.47
2022-12-28T22:56:34.426Z,100188.72
2022-12-28T22:58:36.137Z,100189.16
2022-12-28T23:00:37.667Z,100191.38
2022-12-28T23:02:39.480Z,100199.59
2022-12-28T23:04:41.291Z,100192.06
2022-12-28T23:06:43.194Z,100182.28
2022-12-28T23:08:48.736Z,100174.38
2022-12-28T23:10:57.543Z,100175.44
2022-12-28T23:12:59.176Z,100175.72
2022-12-28T23:15:03.882Z,100167.09
2022-12-28T23:17:07.512Z,100165.19
2022-12-28T23:19:10.493Z,100157.63
2022-12-28T23:21:17.417Z,100166.53
2022-12-28T23:23:19.227Z,100171.25
2022-12-28T23:25:22.861Z,100158.50
2022-12-28T23:27:29.463Z,100153.34
2022-12-28T23:29:31.971Z,100150.63
2022-12-28T23:31:35.058Z,100156.69
2022-12-28T23:33:36.788Z,100158.66
2022-12-28T23:35:38.516Z,100153.25
2022-12-28T23:37:40.649Z,100143.25
2022-12-28T23:39:42.343Z,100140.25
2022-12-28T23:41:44.256Z,100133.13